Weather at Heliport Acquaviva hospital

Public forecast

Using degrees Celsius for public forecast. Weather courtesy of forecast.io.

Closest aviation weather report (METAR) to Heliport Acquaviva hospital

Closest report is Gioia Del Colle Air Base, 8.4 nm (15.5 km) SE.

2024/05/19 22:06 (retrieved 44 minutes ago)

LIBV 192206Z 36002KT 0500 FG OVC002 17/17 Q1012 RMK OVC VIS MIN 0500 WIND THR32 36003KT WIND THR14 03002KT RED

Closest aviation forecast (TAF) to Heliport Acquaviva hospital

Closest forecast is Bari Karol Wojtyła Airport, 16.6 nm (30.7 km) N.

2024/05/19 18:00 (retrieved 5 hours ago)

TAF LIBD 191700Z 1918/2018 VRB05KT 8000 SCT030 TEMPO 1918/1919 TSRA TEMPO 2000/2005 0500 FG BKN005 BECMG 2009/2011 08012KT TEMPO 2012/2015 SHRA